createdAt,value
2023-02-28T00:00:44.728Z,0.87
2023-02-28T00:03:14.999Z,1.00
2023-02-28T00:05:48.486Z,0.73
2023-02-28T00:08:18.260Z,0.90
2023-02-28T00:10:48.674Z,0.70
2023-02-28T00:13:18.450Z,0.80
2023-02-28T00:15:51.030Z,0.70
2023-02-28T00:18:20.812Z,1.07
2023-02-28T00:20:50.973Z,0.57
2023-02-28T00:23:20.773Z,1.10
2023-02-28T00:25:50.655Z,0.73
2023-02-28T00:28:20.588Z,0.80
2023-02-28T00:30:53.211Z,0.60
2023-02-28T00:33:23.131Z,1.10
2023-02-28T00:35:53.324Z,1.27
2023-02-28T00:38:23.288Z,0.90
2023-02-28T00:40:53.134Z,0.87
2023-02-28T00:43:22.996Z,0.80
2023-02-28T00:45:55.620Z,0.80
2023-02-28T00:48:25.452Z,0.60
2023-02-28T00:50:57.229Z,0.80
2023-02-28T00:53:27.201Z,0.70
2023-02-28T00:55:57.433Z,0.80
2023-02-28T00:58:27.262Z,1.00
2023-02-28T01:00:59.818Z,0.83
2023-02-28T01:03:29.721Z,0.80
2023-02-28T01:05:59.876Z,1.30
2023-02-28T01:08:29.749Z,0.93
2023-02-28T01:10:59.544Z,0.90
2023-02-28T01:13:29.452Z,1.40
2023-02-28T01:16:03.201Z,1.30
2023-02-28T01:18:33.448Z,0.80
2023-02-28T01:21:08.131Z,0.90
2023-02-28T01:23:38.402Z,0.80
2023-02-28T01:26:09.701Z,0.60
2023-02-28T01:28:42.987Z,1.03
2023-02-28T01:31:16.159Z,0.80
2023-02-28T01:33:46.382Z,0.80
2023-02-28T01:36:18.567Z,0.80
2023-02-28T01:38:48.955Z,0.60
2023-02-28T01:41:21.980Z,0.90
2023-02-28T01:44:08.532Z,0.70
2023-02-28T01:46:40.992Z,0.80
2023-02-28T01:49:15.588Z,0.70
2023-02-28T01:51:52.473Z,0.97
2023-02-28T01:54:25.552Z,0.60
2023-02-28T01:57:00.009Z,0.80
2023-02-28T01:59:35.812Z,0.87
2023-02-28T02:02:08.778Z,0.60
2023-02-28T02:04:43.130Z,0.70
2023-02-28T02:07:13.996Z,0.70
2023-02-28T02:09:47.577Z,0.80
2023-02-28T02:12:29.571Z,0.70
2023-02-28T02:15:09.720Z,0.90
2023-02-28T02:17:45.618Z,0.90
2023-02-28T02:20:46.409Z,1.00
2023-02-28T02:23:52.384Z,0.90
2023-02-28T02:26:51.776Z,0.70
2023-02-28T02:29:39.672Z,1.00
2023-02-28T02:32:32.447Z,0.77
2023-02-28T02:35:13.901Z,0.87
2023-02-28T02:37:51.045Z,1.10
2023-02-28T02:40:24.136Z,0.50
2023-02-28T02:43:02.338Z,0.70
2023-02-28T02:45:37.624Z,0.90
2023-02-28T02:48:11.701Z,0.93
2023-02-28T02:50:48.032Z,1.10
2023-02-28T02:53:21.107Z,0.67
2023-02-28T02:55:55.449Z,0.63
2023-02-28T02:58:31.079Z,0.80
2023-02-28T03:01:04.904Z,0.73
2023-02-28T03:03:37.289Z,0.90
2023-02-28T03:06:11.536Z,0.60
2023-02-28T03:08:42.391Z,0.83
2023-02-28T03:11:18.176Z,0.90
2023-02-28T03:14:15.166Z,0.60
2023-02-28T03:17:11.074Z,0.80
2023-02-28T03:20:08.435Z,0.87
2023-02-28T03:23:03.058Z,0.90
2023-02-28T03:25:38.267Z,0.77
2023-02-28T03:28:16.493Z,0.80
2023-02-28T03:30:54.906Z,0.93
2023-02-28T03:33:28.474Z,0.80
2023-02-28T03:36:00.941Z,0.80
2023-02-28T03:38:37.995Z,1.00
2023-02-28T03:41:14.092Z,0.80
2023-02-28T03:43:53.046Z,0.93
2023-02-28T03:46:27.605Z,1.10
2023-02-28T03:49:04.548Z,1.37
2023-02-28T03:51:36.665Z,0.80
2023-02-28T03:54:14.817Z,0.87
2023-02-28T03:56:52.041Z,1.27
2023-02-28T03:59:27.492Z,1.03
2023-02-28T04:01:59.764Z,1.00
2023-02-28T04:04:29.931Z,1.10
2023-02-28T04:07:06.739Z,0.93
2023-02-28T04:09:39.256Z,1.33
2023-02-28T04:12:09.796Z,1.47
2023-02-28T04:14:39.761Z,1.10
2023-02-28T04:17:09.822Z,1.23
2023-02-28T04:19:40.216Z,1.20
2023-02-28T04:22:10.374Z,1.13
2023-02-28T04:24:43.039Z,1.37
2023-02-28T04:27:13.951Z,0.97
2023-02-28T04:29:45.664Z,0.90
2023-02-28T04:32:15.773Z,1.10
2023-02-28T04:34:45.712Z,1.40
2023-02-28T04:37:15.979Z,1.60
2023-02-28T04:39:48.421Z,1.50
2023-02-28T04:42:19.440Z,1.03
2023-02-28T04:44:49.291Z,1.30
2023-02-28T04:47:20.013Z,1.20
2023-02-28T04:49:49.960Z,1.33
2023-02-28T04:52:21.051Z,1.23
2023-02-28T04:54:53.442Z,1.67
2023-02-28T04:57:23.828Z,1.30
2023-02-28T04:59:53.627Z,1.70
2023-02-28T05:02:25.117Z,1.20
2023-02-28T05:04:55.080Z,0.90
2023-02-28T05:07:25.555Z,1.13
2023-02-28T05:09:57.988Z,1.70
2023-02-28T05:12:28.100Z,2.00
2023-02-28T05:14:58.073Z,1.27
2023-02-28T05:17:28.145Z,1.40
2023-02-28T05:20:09.693Z,1.20
2023-02-28T05:22:40.231Z,1.30
2023-02-28T05:25:16.502Z,1.20
2023-02-28T05:27:46.340Z,1.20
2023-02-28T05:30:16.725Z,1.50
2023-02-28T05:32:46.805Z,1.10
2023-02-28T05:35:16.921Z,1.17
2023-02-28T05:37:46.706Z,1.20
2023-02-28T05:40:21.527Z,1.30
2023-02-28T05:42:53.809Z,1.90
2023-02-28T05:45:23.648Z,1.30
2023-02-28T05:47:56.731Z,1.13
2023-02-28T05:50:26.602Z,1.70
2023-02-28T05:52:56.767Z,1.20
2023-02-28T05:55:29.144Z,1.30
2023-02-28T05:57:59.858Z,1.90
2023-02-28T06:00:29.799Z,1.60
2023-02-28T06:03:02.793Z,2.10
2023-02-28T06:05:32.732Z,1.30
2023-02-28T06:08:02.563Z,1.47
2023-02-28T06:10:35.129Z,1.37
2023-02-28T06:13:06.214Z,1.53
2023-02-28T06:15:36.464Z,2.33
2023-02-28T06:18:07.189Z,1.80
2023-02-28T06:20:37.378Z,2.13
2023-02-28T06:23:07.326Z,2.10
2023-02-28T06:25:40.368Z,1.77
2023-02-28T06:28:10.256Z,1.40
2023-02-28T06:30:40.984Z,1.27
2023-02-28T06:33:10.824Z,1.53
2023-02-28T06:35:40.702Z,2.20
2023-02-28T06:38:12.061Z,2.33
2023-02-28T06:40:44.866Z,1.90
2023-02-28T06:43:15.617Z,1.93
2023-02-28T06:45:47.040Z,1.93
2023-02-28T06:48:16.949Z,2.67
2023-02-28T06:50:47.874Z,2.07
2023-02-28T06:53:18.116Z,2.13
2023-02-28T06:55:50.587Z,2.33
2023-02-28T06:58:21.892Z,2.20
2023-02-28T07:00:55.203Z,1.63
2023-02-28T07:03:25.409Z,2.27
2023-02-28T07:05:59.001Z,2.00
2023-02-28T07:08:29.304Z,1.90
2023-02-28T07:11:02.207Z,2.63
2023-02-28T07:13:32.352Z,1.70
2023-02-28T07:16:04.718Z,2.13
2023-02-28T07:18:35.433Z,5.27
2023-02-28T07:21:06.279Z,7.70
2023-02-28T07:23:36.533Z,5.23
2023-02-28T07:26:12.267Z,4.20
2023-02-28T07:28:43.312Z,3.13
2023-02-28T07:31:14.985Z,4.10
2023-02-28T07:33:45.897Z,4.67
2023-02-28T07:36:19.821Z,4.10
2023-02-28T07:38:51.849Z,4.67
2023-02-28T07:41:29.033Z,4.67
2023-02-28T07:44:00.986Z,4.50
2023-02-28T07:46:36.695Z,5.63
2023-02-28T07:49:08.189Z,3.80
2023-02-28T07:51:38.170Z,3.50
2023-02-28T07:54:08.833Z,3.40
2023-02-28T07:56:41.234Z,3.83
2023-02-28T07:59:11.365Z,3.07
2023-02-28T08:01:41.255Z,2.87
2023-02-28T08:04:11.106Z,3.07
2023-02-28T08:06:40.898Z,2.77
2023-02-28T08:09:10.752Z,2.83
2023-02-28T08:11:43.326Z,2.97
2023-02-28T08:14:13.434Z,2.73
2023-02-28T08:16:44.035Z,3.70
2023-02-28T08:19:14.271Z,3.13
2023-02-28T08:21:44.063Z,2.80
2023-02-28T08:24:14.096Z,2.90
2023-02-28T08:26:46.568Z,2.57
2023-02-28T08:29:16.766Z,3.00
2023-02-28T08:31:47.313Z,3.13
2023-02-28T08:34:19.598Z,3.40
2023-02-28T08:36:49.407Z,2.87
2023-02-28T08:39:21.153Z,1.97
2023-02-28T08:42:06.736Z,1.87
2023-02-28T08:44:38.098Z,1.63
2023-02-28T08:47:07.981Z,1.90
2023-02-28T08:49:38.664Z,1.87
2023-02-28T08:52:08.763Z,2.20
2023-02-28T08:54:39.482Z,1.90
2023-02-28T08:57:12.273Z,1.97
2023-02-28T08:59:42.216Z,1.80
2023-02-28T09:02:15.760Z,1.23
2023-02-28T09:04:46.496Z,1.60
2023-02-28T09:07:16.772Z,1.97
2023-02-28T09:09:57.868Z,1.90
2023-02-28T09:12:31.346Z,2.20
2023-02-28T09:15:01.411Z,2.47
2023-02-28T09:17:31.349Z,1.90
2023-02-28T09:20:01.830Z,2.67
2023-02-28T09:22:31.612Z,2.23
2023-02-28T09:25:01.898Z,2.10
2023-02-28T09:27:34.325Z,1.87
2023-02-28T09:30:04.621Z,2.00
2023-02-28T09:32:34.875Z,1.90
2023-02-28T09:35:04.685Z,1.70
2023-02-28T09:37:34.588Z,2.13
2023-02-28T09:40:05.042Z,1.73
2023-02-28T09:42:38.143Z,1.93
2023-02-28T09:45:18.095Z,1.40
2023-02-28T09:47:51.189Z,1.50
2023-02-28T09:50:34.204Z,1.53
2023-02-28T09:53:09.509Z,1.63
2023-02-28T09:55:47.063Z,1.90
2023-02-28T09:58:27.238Z,1.73
2023-02-28T10:01:04.040Z,1.90
2023-02-28T10:03:39.271Z,1.83
2023-02-28T10:06:14.122Z,2.80
2023-02-28T10:08:51.666Z,1.60
2023-02-28T10:11:24.553Z,2.23
2023-02-28T10:14:02.703Z,1.90
2023-02-28T10:16:38.466Z,1.60
2023-02-28T10:19:13.513Z,1.60
2023-02-28T10:21:47.993Z,1.50
2023-02-28T10:24:24.877Z,1.63
2023-02-28T10:26:56.559Z,1.40
2023-02-28T10:29:30.969Z,1.20
2023-02-28T10:32:00.865Z,1.30
2023-02-28T10:34:30.685Z,1.83
2023-02-28T10:37:08.606Z,1.90
2023-02-28T10:39:41.526Z,1.40
2023-02-28T10:42:26.960Z,1.63
2023-02-28T10:45:15.630Z,2.60
2023-02-28T10:47:56.450Z,1.60
2023-02-28T10:50:46.814Z,1.53
2023-02-28T10:53:36.022Z,1.60
2023-02-28T10:56:10.360Z,1.60
2023-02-28T10:58:55.485Z,1.87
2023-02-28T11:01:38.136Z,1.37
2023-02-28T11:04:19.998Z,1.40
2023-02-28T11:06:50.711Z,1.63
2023-02-28T11:09:27.273Z,1.50
2023-02-28T11:11:57.238Z,1.53
2023-02-28T11:14:29.726Z,1.60
2023-02-28T11:17:15.221Z,2.47
2023-02-28T11:19:50.895Z,1.90
2023-02-28T11:22:24.328Z,2.20
2023-02-28T11:24:57.338Z,1.90
2023-02-28T11:27:47.652Z,1.93
2023-02-28T11:30:34.953Z,2.00
2023-02-28T11:33:25.258Z,2.13
2023-02-28T11:35:59.629Z,1.30
2023-02-28T11:38:30.533Z,2.30
2023-02-28T11:41:13.170Z,1.70
2023-02-28T11:43:57.240Z,2.00
2023-02-28T11:46:35.754Z,2.73
2023-02-28T11:49:24.717Z,2.50
2023-02-28T11:52:00.926Z,2.53
2023-02-28T11:54:58.389Z,2.77
2023-02-28T11:57:50.613Z,2.10
2023-02-28T12:00:40.810Z,2.17
2023-02-28T12:03:21.971Z,2.27
2023-02-28T12:06:04.642Z,2.30
2023-02-28T12:08:50.698Z,2.30
2023-02-28T12:11:34.800Z,2.60
2023-02-28T12:14:29.477Z,2.60
2023-02-28T12:17:08.304Z,2.40
2023-02-28T12:19:48.469Z,2.20
2023-02-28T12:22:34.903Z,1.80
2023-02-28T12:25:45.291Z,2.70
2023-02-28T12:28:18.303Z,2.80
2023-02-28T12:30:57.241Z,3.57
2023-02-28T12:33:32.474Z,2.70
2023-02-28T12:36:05.979Z,2.20
2023-02-28T12:38:43.212Z,2.37
2023-02-28T12:41:18.153Z,2.87
2023-02-28T12:43:51.400Z,2.80
2023-02-28T12:46:26.868Z,2.70
2023-02-28T12:49:00.330Z,2.03
2023-02-28T12:51:32.683Z,2.77
2023-02-28T12:54:16.000Z,2.60
2023-02-28T12:56:52.090Z,3.00
2023-02-28T12:59:29.928Z,3.30
2023-02-28T13:02:32.697Z,2.80
2023-02-28T13:05:27.471Z,2.47
2023-02-28T13:08:39.133Z,2.80
2023-02-28T13:11:28.187Z,3.47
2023-02-28T13:14:06.920Z,3.07
2023-02-28T13:16:58.758Z,2.90
2023-02-28T13:19:30.438Z,2.50
2023-02-28T13:22:01.507Z,4.10
2023-02-28T13:24:47.897Z,3.00
2023-02-28T13:27:47.157Z,2.80
2023-02-28T13:30:47.153Z,3.13
2023-02-28T13:33:32.239Z,3.60
2023-02-28T13:36:13.698Z,3.73
2023-02-28T13:38:46.381Z,3.50
2023-02-28T13:41:58.928Z,3.70
2023-02-28T13:44:31.585Z,3.30
2023-02-28T13:47:26.023Z,3.70
2023-02-28T13:49:56.501Z,4.07
2023-02-28T13:52:28.366Z,3.00
2023-02-28T13:55:21.855Z,3.80
2023-02-28T13:58:08.752Z,3.73
2023-02-28T14:00:55.728Z,3.20
2023-02-28T14:03:44.881Z,3.50
2023-02-28T14:06:27.255Z,3.63
2023-02-28T14:09:04.213Z,3.57
2023-02-28T14:11:37.257Z,3.47
2023-02-28T14:14:09.115Z,3.47
2023-02-28T14:16:51.238Z,3.40
2023-02-28T14:19:26.898Z,3.40
2023-02-28T14:22:13.151Z,2.83
2023-02-28T14:25:12.439Z,3.50
2023-02-28T14:27:51.896Z,3.50
2023-02-28T14:30:47.934Z,2.87
2023-02-28T14:33:38.962Z,2.80
2023-02-28T14:36:16.222Z,3.00
2023-02-28T14:38:51.772Z,3.57
2023-02-28T14:41:27.045Z,3.13
2023-02-28T14:44:01.577Z,3.30
2023-02-28T14:46:39.037Z,3.37
2023-02-28T14:49:19.644Z,3.63
2023-02-28T14:51:51.057Z,4.10
2023-02-28T14:54:26.618Z,3.97
2023-02-28T14:56:56.915Z,4.00
2023-02-28T14:59:37.520Z,3.10
2023-02-28T15:02:24.606Z,3.87
2023-02-28T15:05:02.424Z,4.30
2023-02-28T15:07:32.474Z,4.00
2023-02-28T15:10:12.972Z,3.80
2023-02-28T15:12:44.769Z,3.60
2023-02-28T15:15:19.726Z,3.63
2023-02-28T15:17:53.477Z,5.33
2023-02-28T15:20:28.208Z,4.67
2023-02-28T15:23:00.151Z,4.07
2023-02-28T15:25:31.050Z,3.93
2023-02-28T15:28:01.238Z,3.87
2023-02-28T15:30:33.920Z,4.97
2023-02-28T15:33:12.513Z,3.50
2023-02-28T15:35:45.630Z,4.33
2023-02-28T15:38:20.546Z,3.57
2023-02-28T15:40:54.802Z,4.60
2023-02-28T15:43:30.593Z,3.90
2023-02-28T15:46:03.572Z,4.23
2023-02-28T15:48:37.011Z,3.53
2023-02-28T15:51:20.176Z,3.70
2023-02-28T15:53:54.381Z,5.00
2023-02-28T15:56:28.438Z,4.90
2023-02-28T15:58:59.518Z,3.93
2023-02-28T16:01:33.567Z,4.00
2023-02-28T16:04:05.843Z,4.13
2023-02-28T16:06:45.958Z,4.70
2023-02-28T16:09:17.826Z,3.90
2023-02-28T16:11:50.227Z,4.17
2023-02-28T16:14:24.053Z,4.27
2023-02-28T16:16:55.789Z,5.30
2023-02-28T16:19:26.586Z,4.77
2023-02-28T16:21:59.219Z,3.97
2023-02-28T16:24:29.099Z,3.80
2023-02-28T16:27:00.594Z,4.53
2023-02-28T16:29:33.725Z,4.93
2023-02-28T16:32:04.279Z,4.80
2023-02-28T16:34:34.164Z,4.60
2023-02-28T16:37:08.732Z,3.70
2023-02-28T16:39:38.749Z,5.20
2023-02-28T16:42:08.922Z,4.90
2023-02-28T16:44:39.623Z,5.60
2023-02-28T16:47:09.620Z,5.10
2023-02-28T16:49:39.463Z,5.33
2023-02-28T16:52:13.136Z,4.33
2023-02-28T16:54:43.548Z,4.30
2023-02-28T16:57:23.041Z,5.07
2023-02-28T16:59:53.761Z,4.80
2023-02-28T17:02:26.930Z,5.00
2023-02-28T17:04:56.857Z,5.30
2023-02-28T17:07:29.671Z,6.07
2023-02-28T17:10:01.619Z,5.07
2023-02-28T17:12:32.178Z,4.87
2023-02-28T17:15:02.013Z,5.77
2023-02-28T17:17:33.341Z,5.60
2023-02-28T17:20:03.764Z,5.20
2023-02-28T17:22:36.736Z,4.70
2023-02-28T17:25:06.902Z,5.00
2023-02-28T17:27:36.784Z,4.47
2023-02-28T17:30:07.323Z,5.07
2023-02-28T17:32:37.480Z,5.23
2023-02-28T17:35:08.227Z,4.60
2023-02-28T17:37:40.658Z,4.50
2023-02-28T17:40:17.570Z,5.67
2023-02-28T17:42:48.103Z,4.63
2023-02-28T17:45:18.621Z,4.97
2023-02-28T17:47:51.897Z,4.60
2023-02-28T17:50:25.320Z,4.33
2023-02-28T17:52:58.179Z,4.53
2023-02-28T17:55:28.556Z,4.70
2023-02-28T17:57:58.761Z,5.23
2023-02-28T18:00:29.048Z,4.60
2023-02-28T18:02:59.127Z,4.80
2023-02-28T18:05:29.014Z,4.20
2023-02-28T18:08:01.706Z,5.80
2023-02-28T18:10:34.257Z,5.83
2023-02-28T18:13:04.734Z,5.40
2023-02-28T18:15:34.583Z,4.70
2023-02-28T18:18:04.790Z,5.27
2023-02-28T18:20:34.666Z,5.60
2023-02-28T18:23:07.476Z,4.67
2023-02-28T18:25:38.803Z,4.60
2023-02-28T18:28:08.882Z,4.20
2023-02-28T18:30:40.850Z,4.67
2023-02-28T18:33:11.053Z,4.93
2023-02-28T18:35:41.741Z,4.03
2023-02-28T18:38:19.301Z,4.37
2023-02-28T18:40:55.914Z,4.10
2023-02-28T18:43:26.073Z,3.43
2023-02-28T18:45:56.454Z,3.30
2023-02-28T18:48:27.327Z,3.40
2023-02-28T18:50:57.352Z,3.30
2023-02-28T18:53:29.820Z,3.60
2023-02-28T18:56:03.614Z,4.60
2023-02-28T18:58:37.065Z,3.53
2023-02-28T19:01:16.036Z,3.37
2023-02-28T19:03:46.692Z,4.20
2023-02-28T19:06:17.409Z,3.60
2023-02-28T19:08:53.444Z,3.83
2023-02-28T19:11:23.715Z,3.40
2023-02-28T19:14:02.793Z,4.17
2023-02-28T19:16:33.017Z,4.20
2023-02-28T19:19:03.107Z,4.40
2023-02-28T19:21:32.947Z,4.20
2023-02-28T19:24:06.570Z,3.30
2023-02-28T19:26:36.779Z,4.30
2023-02-28T19:29:07.328Z,3.83
2023-02-28T19:31:38.302Z,4.00
2023-02-28T19:34:08.767Z,3.67
2023-02-28T19:36:38.542Z,3.87
2023-02-28T19:39:11.072Z,4.07
2023-02-28T19:41:41.007Z,3.60
2023-02-28T19:44:11.379Z,4.60
2023-02-28T19:46:41.104Z,4.30
2023-02-28T19:49:12.984Z,4.90
2023-02-28T19:51:44.627Z,4.23
2023-02-28T19:54:17.208Z,3.30
2023-02-28T19:56:46.991Z,4.17
2023-02-28T19:59:21.964Z,4.00
2023-02-28T20:02:01.780Z,4.00
2023-02-28T20:04:31.754Z,3.70
2023-02-28T20:07:01.582Z,4.97
2023-02-28T20:09:36.987Z,4.10
2023-02-28T20:12:17.870Z,4.13
2023-02-28T20:14:55.912Z,4.07
2023-02-28T20:17:27.014Z,3.93
2023-02-28T20:19:56.842Z,3.43
2023-02-28T20:22:27.043Z,4.10
2023-02-28T20:24:59.978Z,4.67
2023-02-28T20:27:30.982Z,4.67
2023-02-28T20:30:00.755Z,4.77
2023-02-28T20:32:31.084Z,4.83
2023-02-28T20:35:00.959Z,4.20
2023-02-28T20:37:31.528Z,3.87
2023-02-28T20:40:04.582Z,4.20
2023-02-28T20:42:34.995Z,4.93
2023-02-28T20:45:05.085Z,4.60
2023-02-28T20:47:34.925Z,4.57
2023-02-28T20:50:04.866Z,4.57
2023-02-28T20:52:34.706Z,3.60
2023-02-28T20:55:08.221Z,3.70
2023-02-28T20:57:38.068Z,4.67
2023-02-28T21:00:11.049Z,4.67
2023-02-28T21:02:40.960Z,4.13
2023-02-28T21:05:11.844Z,4.40
2023-02-28T21:07:41.912Z,5.90
2023-02-28T21:10:15.292Z,5.07
2023-02-28T21:12:45.316Z,5.60
2023-02-28T21:15:15.300Z,5.10
2023-02-28T21:17:48.417Z,4.90
2023-02-28T21:20:22.271Z,4.53
2023-02-28T21:22:52.882Z,4.57
2023-02-28T21:25:25.830Z,4.80
2023-02-28T21:27:57.682Z,4.40
2023-02-28T21:30:27.547Z,5.20
2023-02-28T21:32:58.238Z,4.97
2023-02-28T21:35:28.244Z,4.70
2023-02-28T21:37:58.361Z,4.53
2023-02-28T21:40:30.833Z,4.80
2023-02-28T21:43:00.870Z,4.53
2023-02-28T21:45:31.271Z,3.20
2023-02-28T21:48:01.382Z,3.43
2023-02-28T21:50:31.182Z,4.50
2023-02-28T21:53:01.645Z,4.70
2023-02-28T21:55:37.012Z,4.37
2023-02-28T21:58:07.282Z,4.17
2023-02-28T22:00:37.176Z,4.73
2023-02-28T22:03:07.115Z,5.07
2023-02-28T22:05:37.020Z,4.33
2023-02-28T22:08:06.996Z,4.60
2023-02-28T22:10:40.348Z,4.97
2023-02-28T22:13:10.179Z,4.63
2023-02-28T22:15:40.671Z,4.83
2023-02-28T22:18:10.758Z,3.67
2023-02-28T22:20:40.586Z,5.03
2023-02-28T22:23:10.541Z,4.27
2023-02-28T22:25:43.289Z,6.03
2023-02-28T22:28:13.168Z,4.27
2023-02-28T22:30:43.068Z,4.83
2023-02-28T22:33:13.044Z,3.87
2023-02-28T22:35:43.112Z,3.90
2023-02-28T22:38:13.238Z,3.77
2023-02-28T22:40:46.011Z,4.60
2023-02-28T22:43:16.289Z,3.57
2023-02-28T22:45:46.203Z,4.83
2023-02-28T22:48:16.413Z,3.90
2023-02-28T22:50:46.343Z,3.30
2023-02-28T22:53:16.311Z,5.40
2023-02-28T22:55:48.817Z,4.07
2023-02-28T22:58:18.738Z,4.70
2023-02-28T23:00:49.101Z,4.10
2023-02-28T23:03:19.118Z,4.17
2023-02-28T23:05:48.971Z,4.13
2023-02-28T23:08:23.697Z,4.07
2023-02-28T23:10:56.430Z,3.53
2023-02-28T23:13:26.321Z,4.47
2023-02-28T23:15:56.166Z,4.43
2023-02-28T23:18:26.322Z,3.70
2023-02-28T23:20:58.710Z,3.03
2023-02-28T23:23:29.547Z,3.30
2023-02-28T23:26:02.005Z,2.70
2023-02-28T23:28:32.804Z,3.97
2023-02-28T23:31:05.409Z,3.67
2023-02-28T23:33:35.983Z,3.40
2023-02-28T23:36:12.577Z,3.20
2023-02-28T23:38:43.362Z,3.10
2023-02-28T23:41:16.663Z,3.67
2023-02-28T23:43:47.374Z,3.07
2023-02-28T23:46:18.089Z,3.30
2023-02-28T23:48:48.842Z,3.23
2023-02-28T23:51:20.674Z,3.10
2023-02-28T23:53:53.091Z,3.30
2023-02-28T23:56:28.220Z,3.30
2023-02-28T23:58:59.383Z,3.13
